โตเกียว, ประเทศญี่ปุ่น

06:57 AM JST วัน เมษายน 01, 2015 (GMT +0900)
Tokyo (Haneda) International | | Change Station
CLOSE
Current Station
Airport
Location: Tokyo,
Elevation: 26 ft
Nearby Weather Stations

Elev 26 ft 35.55 °N, 139.78 °E | Updated 27 minutes ago

Clear
ท้องฟ้าแจ่มใส
57 ฟาเรนไฮน์
Feels Like 57 ฟาเรนไฮน์
N
6
ลม ความผันแปร ลม from ทางทิศตะวันตก

วันนี้
High -- | Low -- ฟาเรนไฮน์
--% Chance of Precip.
Yesterday
High -- | Low -- ฟาเรนไฮน์
Precip. -- นิ้ว
5:28 AM 6:01 PM
ข้างขึ้น, 89% visible
ความดัน 29.89 นิ้ว
ทัศนวิสัย 4.3 ไมล์
เมฆ
อุณหภูมิที่อากาศอาจจับตัวเป็นหยาดน้ำค้าง 50 ฟาเรนไฮน์
ความชื้น 77%
Rainfall 0.00 นิ้ว
Snow Depth Not available.
UV Not available.
Pollen Not available.
Air Quality Not available.
Flu Activity Not available.
METAR RJTT 312130Z 26005KT 7000 NSC 14/10 Q1012 BECMG 23008KT RMK 2AC130 7AC180 A2989

More Conditions Fewer Conditions

ความดัน 29.89 นิ้ว
ทัศนวิสัย 4.3 ไมล์
เมฆ
อุณหภูมิที่อากาศอาจจับตัวเป็นหยาดน้ำค้าง 50 ฟาเรนไฮน์
ความชื้น 77%
Rainfall 0.00 นิ้ว
Snow Depth Not available.
UV Not available.
Pollen Not available.
Air Quality Not available.
Flu Activity Not available.
METAR RJTT 312130Z 26005KT 7000 NSC 14/10 Q1012 BECMG 23008KT RMK 2AC130 7AC180 A2989

More Conditions Fewer Conditions

10-Day Weather Forecast

Almanac

ดาราศาสตร์

Apr. 01, 2015 Rise Set
Actual Time
Civil Twilight
Nautical Twilight
Astronomical Twilight
Moon
Length Of Visible Light
ความยาวของวัน
Tomorrow will be .
, % of the Moon is Illuminated

Today's Extremes

Country Highs Country Lows

Community

WunderPhotos

Upload Photos

1,809,844 photos uploaded!

WunderBlogs® & News

Nearby

Air Quality

  Air Quality AQ Index Pollutant
Not available.

Snow Depth

Station Depth Elevation

Earthquake Activity

City Distance Mag. Time & Date
Minimum magnitude displayed is 2.5.

Coastal Water Temperatures

สถานที่ อุณหภูมิ

Stations

Nearby Weather Stations

Station Location Temp ลมหนาว อุณหภูมิที่อากาศอาจจับตัวเป็นหยาดน้ำค้าง ความชื้น ลม Precip. Elev ปรับปรุงล่าสุด Type